.
WxDataArchive / Data Records for 2016-05-14
2016-05-13 May 2016 2016-05-15

Data Records for Saturday, 14 May 2016

Time	Temp	Chill	HIndex	Humid	Dewpt	 Wind 	HiWind	WindDir	Rain 	Barom
-----	----	-----	------	-----	-----	------	------	-------	-----	-----
00:00	59.9	59.9	59.9	64	47.7	0	0	---	0.00	29.786 
00:05	59.9	59.9	59.9	65	48.1	0	1	292	0.00	29.786 
00:10	60.1	60.1	60.1	64	47.9	0	1	292	0.00	29.786 
00:15	60.1	60.1	60.1	66	48.7	0	1	292	0.00	29.783 
00:20	59.9	59.9	59.9	67	48.9	0	3	292	0.00	29.783 
00:25	59.6	59.6	59.6	70	49.8	0	1	292	0.00	29.783 
00:30	59.2	59.2	59.2	72	50.2	0	1	292	0.01	29.768 
00:35	58.7	58.7	58.7	74	50.4	0	1	292	0.01	29.768 
00:40	58.3	58.3	58.3	76	50.8	0	1	292	0.00	29.768 
00:45	57.8	57.8	57.8	78	51.0	0	1	292	0.00	29.753 
00:50	57.5	57.5	57.5	79	51.0	0	1	292	0.00	29.753 
00:55	57.2	57.2	57.2	81	51.4	0	0	---	0.00	29.753 
01:00	56.9	56.9	56.9	81	51.1	0	1	292	0.00	29.736 
01:05	56.7	56.7	56.7	82	51.3	0	1	292	0.00	29.736 
01:10	56.7	56.7	56.7	83	51.6	0	0	---	0.00	29.736 
01:15	56.6	56.6	56.6	83	51.5	0	0	---	0.00	29.714 
01:20	56.5	56.5	56.5	83	51.4	0	1	292	0.00	29.714 
01:25	56.5	56.5	56.5	84	51.7	0	0	---	0.00	29.714 
01:30	56.3	56.3	56.3	84	51.5	0	0	---	0.00	29.706 
01:35	56.3	56.3	56.3	84	51.5	0	1	292	0.00	29.706 
01:40	56.3	56.3	56.3	84	51.5	0	1	292	0.00	29.706 
01:45	56.3	56.3	56.3	83	51.2	0	1	292	0.00	29.691 
01:50	56.5	56.5	56.5	83	51.4	0	1	292	0.00	29.691 
01:55	56.5	56.5	56.5	82	51.1	0	1	292	0.00	29.691 
02:00	56.5	56.5	56.5	82	51.1	0	1	292	0.00	29.679 
02:05	56.5	56.5	56.5	82	51.1	0	1	292	0.00	29.679 
02:10	56.6	56.6	56.6	82	51.2	0	1	292	0.00	29.679 
02:15	56.6	56.6	56.6	82	51.2	0	1	292	0.01	29.679 
02:20	56.6	56.6	56.6	82	51.2	0	2	292	0.01	29.679 
02:25	56.3	56.3	56.3	83	51.2	0	3	292	0.01	29.679 
02:30	56.0	56.0	56.0	84	51.2	1	5	90	0.00	29.657 
02:35	55.9	55.9	55.9	85	51.5	0	2	135	0.00	29.657 
02:40	55.6	55.6	55.6	86	51.5	0	3	248	0.00	29.657 
02:45	55.6	55.6	55.6	86	51.5	0	2	248	0.00	29.641 
02:50	55.4	55.4	55.4	87	51.6	0	3	248	0.02	29.641 
02:55	55.3	55.3	55.3	88	51.8	1	3	270	0.01	29.641 
03:00	55.1	55.1	55.1	88	51.6	0	2	248	0.01	29.641 
03:05	55.1	55.1	55.1	89	51.9	0	1	248	0.02	29.641 
03:10	55.0	55.0	55.0	89	51.8	0	2	248	0.01	29.641 
03:15	54.8	54.8	54.8	90	51.9	0	2	248	0.01	29.625 
03:20	54.8	54.8	54.8	90	51.9	0	1	248	0.00	29.625 
03:25	54.7	54.7	54.7	91	52.1	0	5	45	0.00	29.625 
03:30	54.7	54.7	54.7	91	52.1	0	4	315	0.01	29.620 
03:35	54.8	54.8	54.8	92	52.5	1	4	270	0.00	29.620 
03:40	54.8	54.8	54.8	92	52.5	0	4	270	0.00	29.620 
03:45	55.0	55.0	55.0	92	52.7	0	3	270	0.02	29.621 
03:50	54.1	54.1	54.1	89	50.9	4	12	270	0.02	29.621 
03:55	50.5	50.5	50.5	88	47.1	6	12	292	0.00	29.621 
04:00	48.3	46.2	48.3	89	45.2	5	14	292	0.01	29.669 
04:05	47.6	45.4	47.6	90	44.8	5	12	292	0.01	29.669 
04:10	46.8	44.5	46.8	90	44.0	5	14	315	0.00	29.669 
04:15	46.4	44.0	46.4	90	43.6	5	10	292	0.01	29.683 
04:20	46.1	43.6	46.1	90	43.3	5	12	292	0.00	29.683 
04:25	46.0	44.2	46.0	90	43.2	4	11	292	0.00	29.683 
04:30	45.8	43.3	45.8	90	43.0	5	10	292	0.00	29.683 
04:35	45.7	43.9	45.7	89	42.6	4	11	292	0.00	29.683 
04:40	45.7	45.7	45.7	89	42.6	3	9	315	0.00	29.683 
04:45	45.5	43.7	45.5	88	42.2	4	10	292	0.00	29.696 
04:50	45.5	45.5	45.5	88	42.2	2	6	0	0.00	29.696 
04:55	45.5	45.5	45.5	88	42.2	3	7	315	0.00	29.696 
05:00	45.4	45.4	45.4	88	42.1	3	10	292	0.00	29.697 
05:05	45.4	45.4	45.4	87	41.8	3	7	292	0.00	29.697 
05:10	45.2	43.3	45.2	89	42.2	4	8	292	0.00	29.697 
05:15	45.2	45.2	45.2	87	41.6	2	7	292	0.00	29.700 
05:20	45.4	45.4	45.4	87	41.8	3	7	292	0.00	29.700 
05:25	45.2	45.2	45.2	87	41.6	3	9	292	0.00	29.700 
05:30	45.2	45.2	45.2	87	41.6	2	4	315	0.00	29.702 
05:35	45.1	45.1	45.1	87	41.5	3	7	292	0.00	29.702 
05:40	44.8	42.9	44.8	86	40.9	4	8	292	0.00	29.702 
05:45	44.6	42.6	44.6	86	40.7	4	9	292	0.00	29.710 
05:50	44.6	44.6	44.6	86	40.7	3	7	292	0.00	29.710 
05:55	44.6	44.6	44.6	86	40.7	3	10	292	0.00	29.710 
06:00	44.6	42.6	44.6	85	40.4	4	12	292	0.00	29.722 
06:05	44.5	42.5	44.5	85	40.3	4	11	270	0.00	29.722 
06:10	44.5	42.5	44.5	85	40.3	4	7	292	0.00	29.722 
06:15	44.3	41.5	44.3	84	39.8	5	12	292	0.00	29.731 
06:20	44.3	41.5	44.3	83	39.5	5	12	292	0.00	29.731 
06:25	44.3	44.3	44.3	82	39.2	3	7	315	0.00	29.731 
06:30	44.3	42.3	44.3	82	39.2	4	9	292	0.00	29.739 
06:35	44.3	42.3	44.3	81	38.8	4	11	292	0.00	29.739 
06:40	44.3	42.3	44.3	81	38.8	4	9	292	0.00	29.739 
06:45	44.3	42.3	44.3	81	38.8	4	10	315	0.00	29.748 
06:50	44.5	42.5	44.5	81	39.0	4	9	338	0.00	29.748 
06:55	44.5	42.5	44.5	81	39.0	4	11	315	0.00	29.748 
07:00	44.5	44.5	44.5	81	39.0	3	5	292	0.00	29.750 
07:05	44.6	44.6	44.6	82	39.4	3	5	270	0.00	29.750 
07:10	44.6	44.6	44.6	82	39.4	3	6	270	0.00	29.750 
07:15	44.6	42.6	44.6	82	39.4	4	7	292	0.00	29.764 
07:20	44.6	44.6	44.6	82	39.4	3	6	292	0.00	29.764 
07:25	44.6	42.6	44.6	82	39.4	4	7	270	0.00	29.764 
07:30	44.6	44.6	44.6	82	39.4	3	7	315	0.00	29.769 
07:35	44.8	44.8	44.8	83	40.0	2	6	292	0.00	29.769 
07:40	44.8	44.8	44.8	83	40.0	3	7	292	0.00	29.769 
07:45	44.9	44.9	44.9	83	40.1	3	6	292	0.00	29.778 
07:50	44.9	44.9	44.9	83	40.1	3	7	292	0.00	29.778 
07:55	45.2	45.2	45.2	83	40.3	3	6	292	0.00	29.778 
08:00	45.4	45.4	45.4	83	40.5	2	5	292	0.00	29.778 
08:05	45.5	45.5	45.5	81	40.0	3	5	315	0.00	29.778 
08:10	45.7	45.7	45.7	81	40.2	3	6	315	0.00	29.778 
08:15	45.7	43.9	45.7	80	39.9	4	7	292	0.00	29.782 
08:20	45.4	43.6	45.4	78	38.9	4	10	292	0.00	29.782 
08:25	45.4	43.6	45.4	77	38.6	4	7	292	0.00	29.782 
08:30	45.7	45.7	45.7	77	38.9	3	9	292	0.00	29.796 
08:35	46.1	46.1	46.1	77	39.3	2	4	315	0.00	29.796 
08:40	46.2	46.2	46.2	75	38.7	3	6	315	0.00	29.796 
08:45	46.0	44.2	46.0	74	38.2	4	6	292	0.00	29.799 
08:50	45.8	45.8	45.8	74	38.0	3	5	270	0.00	29.799 
08:55	45.7	45.7	45.7	74	37.9	3	6	315	0.00	29.799 
09:00	45.7	43.9	45.7	74	37.9	4	7	292	0.00	29.803 
09:05	45.8	45.8	45.8	74	38.0	3	6	270	0.00	29.803 
09:10	45.8	45.8	45.8	74	38.0	3	6	270	0.00	29.803 
09:15	45.7	45.7	45.7	74	37.9	3	7	315	0.00	29.810 
09:20	45.7	45.7	45.7	73	37.5	3	6	292	0.00	29.810 
09:25	45.8	45.8	45.8	73	37.6	3	8	315	0.00	29.810 
09:30	46.2	46.2	46.2	73	38.0	3	9	315	0.00	29.813 
09:35	46.5	46.5	46.5	71	37.6	3	9	292	0.00	29.813 
09:40	47.1	47.1	47.1	70	37.8	3	9	292	0.00	29.813 
09:45	47.6	47.6	47.6	69	37.9	3	6	292	0.00	29.816 
09:50	47.6	46.1	47.6	67	37.2	4	10	292	0.00	29.816 
09:55	47.4	45.9	47.4	68	37.4	4	10	292	0.00	29.816 
10:00	47.3	45.8	47.3	68	37.3	4	11	315	0.00	29.819 
10:05	47.4	47.4	47.4	69	37.7	3	7	292	0.00	29.819 
10:10	47.1	45.5	47.1	69	37.5	4	7	292	0.00	29.819 
10:15	47.0	47.0	47.0	69	37.4	3	8	315	0.00	29.824 
10:20	46.5	44.1	46.5	69	36.9	5	12	315	0.00	29.824 
10:25	46.5	44.8	46.5	69	36.9	4	7	315	0.00	29.824 
10:30	46.5	44.8	46.5	69	36.9	4	10	292	0.00	29.828 
10:35	47.0	47.0	47.0	70	37.7	2	7	292	0.00	29.828 
10:40	47.1	47.1	47.1	69	37.5	3	7	292	0.00	29.828 
10:45	46.8	45.2	46.8	69	37.2	4	7	270	0.00	29.836 
10:50	46.4	46.4	46.4	72	37.9	3	7	270	0.00	29.836 
10:55	46.2	46.2	46.2	73	38.0	3	7	292	0.00	29.836 
11:00	46.2	44.5	46.2	74	38.4	4	10	292	0.00	29.844 
11:05	44.9	42.2	44.9	76	37.8	5	13	292	0.00	29.844 
11:10	44.2	44.2	44.2	80	38.4	3	10	315	0.00	29.844 
11:15	44.2	42.2	44.2	81	38.7	4	9	270	0.00	29.855 
11:20	44.2	44.2	44.2	82	39.1	3	11	292	0.00	29.855 
11:25	43.8	43.8	43.8	83	39.0	3	11	292	0.00	29.855 
11:30	43.5	43.5	43.5	84	39.0	3	11	315	0.00	29.862 
11:35	43.5	43.5	43.5	85	39.3	3	5	315	0.00	29.862 
11:40	43.3	43.3	43.3	85	39.1	3	6	292	0.00	29.862 
11:45	43.5	43.5	43.5	84	39.0	3	10	292	0.00	29.865 
11:50	43.9	43.9	43.9	84	39.4	3	7	315	0.00	29.865 
11:55	44.6	42.6	44.6	81	39.1	4	7	292	0.00	29.865 
12:00	45.1	43.2	45.1	80	39.3	4	7	270	0.00	29.869 
12:05	45.7	43.9	45.7	76	38.6	4	7	315	0.00	29.869 
12:10	45.5	43.7	45.5	74	37.7	4	7	292	0.00	29.869 
12:15	44.3	41.5	44.3	78	37.9	5	10	270	0.00	29.879 
12:20	43.8	41.7	43.8	81	38.4	4	6	292	0.00	29.879 
12:25	43.8	41.7	43.8	82	38.7	4	7	292	0.00	29.879 
12:30	43.9	41.1	43.9	80	38.1	5	11	315	0.00	29.883 
12:35	44.2	42.2	44.2	77	37.5	4	11	292	0.00	29.883 
12:40	44.8	44.8	44.8	76	37.7	3	7	292	0.00	29.883 
12:45	45.4	43.6	45.4	75	37.9	4	11	315	0.00	29.886 
12:50	45.7	45.7	45.7	80	39.9	3	8	292	0.00	29.886 
12:55	45.8	44.0	45.8	77	39.0	4	12	292	0.00	29.886 
13:00	45.8	43.3	45.8	73	37.6	5	13	315	0.00	29.888 
13:05	45.8	43.3	45.8	69	36.2	5	11	292	0.00	29.888 
13:10	46.1	44.4	46.1	68	36.1	4	7	292	0.00	29.888 
13:15	46.4	44.7	46.4	69	36.8	4	9	292	0.00	29.892 
13:20	46.0	44.2	46.0	68	36.0	4	7	292	0.00	29.892 
13:25	45.8	43.3	45.8	66	35.1	5	8	315	0.00	29.892 
13:30	46.2	46.2	46.2	68	36.2	3	7	292	0.00	29.895 
13:35	45.5	42.3	45.5	66	34.8	6	12	292	0.00	29.895 
13:40	45.4	43.6	45.4	69	35.8	4	9	292	0.00	29.895 
13:45	45.8	45.8	45.8	68	35.8	3	7	292	0.00	29.897 
13:50	46.4	46.4	46.4	67	36.0	3	6	292	0.00	29.897 
13:55	46.2	44.5	46.2	67	35.9	4	9	270	0.00	29.897 
14:00	46.1	46.1	46.1	67	35.8	3	6	292	0.00	29.901 
14:05	45.7	45.7	45.7	69	36.1	3	6	315	0.00	29.901 
14:10	45.4	42.8	45.4	67	35.1	5	12	292	0.00	29.901 
14:15	45.7	43.9	45.7	64	34.2	4	9	292	0.00	29.909 
14:20	46.1	43.6	46.1	62	33.8	5	11	270	0.00	29.909 
14:25	46.1	43.6	46.1	62	33.8	5	11	292	0.00	29.909 
14:30	46.1	44.4	46.1	62	33.8	4	10	270	0.00	29.911 
14:35	45.8	44.0	45.8	61	33.1	4	14	292	0.00	29.911 
14:40	45.4	45.4	45.4	61	32.7	3	10	292	0.00	29.911 
14:45	44.8	42.9	44.8	63	33.0	4	10	315	0.00	29.913 
14:50	44.6	42.6	44.6	65	33.6	4	9	292	0.00	29.913 
14:55	44.6	44.6	44.6	65	33.6	3	10	292	0.00	29.913 
15:00	44.8	44.8	44.8	67	34.5	2	5	292	0.00	29.920 
15:05	44.9	44.9	44.9	66	34.2	3	11	292	0.00	29.920 
15:10	44.8	44.8	44.8	66	34.1	2	7	292	0.00	29.920 
15:15	44.5	44.5	44.5	68	34.6	3	11	292	0.00	29.932 
15:20	44.5	44.5	44.5	68	34.6	3	6	292	0.00	29.932 
15:25	44.8	44.8	44.8	68	34.9	2	5	292	0.00	29.932 
15:30	44.9	44.9	44.9	68	35.0	1	5	292	0.00	29.934 
15:35	45.1	45.1	45.1	67	34.8	3	5	292	0.00	29.934 
15:40	45.7	45.7	45.7	64	34.2	3	7	270	0.00	29.934 
15:45	46.0	44.2	46.0	61	33.3	4	7	292	0.00	29.929 
15:50	46.2	44.5	46.2	59	32.7	4	11	292	0.00	29.929 
15:55	46.2	43.8	46.2	56	31.4	5	10	292	0.00	29.929 
16:00	46.2	44.5	46.2	55	30.9	4	9	292	0.00	29.934 
16:05	46.2	44.5	46.2	55	30.9	4	11	292	0.00	29.934 
16:10	46.0	44.2	46.0	55	30.7	4	13	292	0.00	29.934 
16:15	45.7	43.9	45.7	54	30.0	4	9	292	0.00	29.937 
16:20	45.7	43.9	45.7	57	31.3	4	8	270	0.00	29.937 
16:25	45.5	45.5	45.5	58	31.6	2	7	315	0.00	29.937 
16:30	45.4	45.4	45.4	57	31.1	3	7	292	0.00	29.939 
16:35	45.2	43.3	45.2	56	30.4	4	6	292	0.00	29.939 
16:40	45.2	43.3	45.2	56	30.4	4	9	292	0.00	29.939 
16:45	45.1	43.2	45.1	57	30.8	4	6	270	0.00	29.942 
16:50	45.2	45.2	45.2	57	30.9	3	6	292	0.00	29.942 
16:55	45.4	43.6	45.4	57	31.1	4	7	292	0.00	29.942 
17:00	45.4	45.4	45.4	58	31.5	2	11	292	0.00	29.939 
17:05	45.5	45.5	45.5	57	31.2	2	6	292	0.00	29.939 
17:10	45.5	45.5	45.5	56	30.7	3	6	270	0.00	29.939 
17:15	45.4	45.4	45.4	56	30.6	3	6	292	0.00	29.949 
17:20	45.2	45.2	45.2	56	30.4	2	5	292	0.00	29.949 
17:25	44.9	43.0	44.9	55	29.7	4	6	292	0.00	29.949 
17:30	44.8	42.9	44.8	55	29.6	4	6	292	0.00	29.952 
17:35	44.8	44.8	44.8	56	30.1	3	6	292	0.00	29.952 
17:40	44.6	44.6	44.6	56	29.9	3	6	292	0.00	29.952 
17:45	44.5	42.5	44.5	56	29.8	4	7	292	0.00	29.957 
17:50	44.5	44.5	44.5	57	30.2	3	7	292	0.00	29.957 
17:55	44.3	42.3	44.3	56	29.6	4	9	292	0.00	29.957 
18:00	44.2	44.2	44.2	56	29.5	3	6	292	0.00	29.966 
18:05	44.2	44.2	44.2	57	29.9	3	7	270	0.00	29.966 
18:10	44.1	44.1	44.1	57	29.9	3	7	292	0.00	29.966 
18:15	43.9	43.9	43.9	58	30.1	2	5	292	0.00	29.970 
18:20	43.9	43.9	43.9	58	30.1	3	6	270	0.00	29.970 
18:25	43.8	43.8	43.8	58	30.0	2	6	292	0.00	29.970 
18:30	43.8	43.8	43.8	59	30.4	2	4	315	0.00	29.971 
18:35	43.6	43.6	43.6	59	30.2	2	4	292	0.00	29.971 
18:40	43.6	43.6	43.6	60	30.6	1	4	292	0.00	29.971 
18:45	43.6	43.6	43.6	59	30.2	1	5	338	0.00	29.971 
18:50	43.6	43.6	43.6	60	30.6	2	5	315	0.00	29.971 
18:55	43.6	43.6	43.6	59	30.2	2	6	270	0.00	29.971 
19:00	43.6	43.6	43.6	57	29.4	3	7	270	0.00	29.972 
19:05	43.5	41.4	43.5	58	29.7	4	11	292	0.00	29.972 
19:10	43.5	41.4	43.5	57	29.3	4	9	292	0.00	29.972 
19:15	43.5	43.5	43.5	57	29.3	3	6	292	0.00	29.978 
19:20	43.5	43.5	43.5	58	29.7	3	6	270	0.00	29.978 
19:25	43.5	43.5	43.5	58	29.7	3	5	270	0.00	29.978 
19:30	43.5	41.4	43.5	57	29.3	4	7	292	0.00	29.982 
19:35	43.5	43.5	43.5	58	29.7	2	9	292	0.00	29.982 
19:40	43.3	43.3	43.3	57	29.1	3	9	292	0.00	29.982 
19:45	43.3	41.1	43.3	57	29.1	4	11	270	0.00	29.985 
19:50	43.3	43.3	43.3	57	29.1	2	6	315	0.00	29.985 
19:55	43.2	43.2	43.2	57	29.0	3	11	292	0.00	29.985 
20:00	43.2	43.2	43.2	57	29.0	2	5	292	0.00	29.986 
20:05	43.1	43.1	43.1	58	29.3	2	4	292	0.00	29.986 
20:10	43.1	43.1	43.1	58	29.3	2	4	292	0.00	29.986 
20:15	42.9	42.9	42.9	57	28.7	2	5	292	0.00	29.992 
20:20	42.9	42.9	42.9	57	28.7	1	4	292	0.00	29.992 
20:25	42.8	42.8	42.8	58	29.1	1	5	292	0.00	29.992 
20:30	42.6	42.6	42.6	56	28.0	2	5	315	0.00	29.996 
20:35	42.6	42.6	42.6	56	28.0	2	7	292	0.00	29.996 
20:40	42.5	42.5	42.5	57	28.4	1	5	292	0.00	29.996 
20:45	42.3	42.3	42.3	57	28.2	1	7	315	0.00	29.992 
20:50	42.3	42.3	42.3	58	28.6	2	4	292	0.00	29.992 
20:55	42.3	42.3	42.3	58	28.6	1	5	292	0.00	29.992 
21:00	42.3	42.3	42.3	58	28.6	2	4	292	0.00	29.992 
21:05	42.3	42.3	42.3	57	28.2	1	5	270	0.00	29.992 
21:10	42.2	42.2	42.2	58	28.5	1	3	292	0.00	29.992 
21:15	42.2	42.2	42.2	58	28.5	1	3	292	0.00	29.996 
21:20	42.2	42.2	42.2	58	28.5	2	4	292	0.00	29.996 
21:25	42.2	42.2	42.2	58	28.5	1	4	292	0.00	29.996 
21:30	42.2	42.2	42.2	58	28.5	1	5	292	0.00	29.998 
21:35	42.1	42.1	42.1	58	28.4	1	4	315	0.00	29.998 
21:40	42.1	42.1	42.1	58	28.4	2	5	270	0.00	29.998 
21:45	42.1	42.1	42.1	58	28.4	2	5	292	0.00	30.001 
21:50	42.1	42.1	42.1	58	28.4	2	4	292	0.00	30.001 
21:55	42.1	42.1	42.1	59	28.8	1	3	292	0.00	30.001 
22:00	42.1	42.1	42.1	60	29.2	1	3	292	0.00	30.003 
22:05	42.1	42.1	42.1	59	28.8	2	4	292	0.00	30.003 
22:10	42.1	42.1	42.1	60	29.2	1	5	315	0.00	30.003 
22:15	42.1	42.1	42.1	60	29.2	1	4	315	0.00	30.005 
22:20	41.9	41.9	41.9	60	29.0	1	3	315	0.00	30.005 
22:25	41.9	41.9	41.9	61	29.4	0	3	315	0.00	30.005 
22:30	41.9	41.9	41.9	61	29.4	1	2	315	0.00	30.010 
22:35	41.9	41.9	41.9	61	29.4	1	3	292	0.00	30.010 
22:40	41.9	41.9	41.9	60	29.0	1	4	292	0.00	30.010 
22:45	41.9	41.9	41.9	61	29.4	1	3	292	0.00	30.016 
22:50	41.9	41.9	41.9	62	29.8	0	3	292	0.00	30.016 
22:55	41.8	41.8	41.8	61	29.4	1	4	292	0.00	30.016 
23:00	41.8	41.8	41.8	61	29.4	0	2	292	0.00	30.016 
23:05	41.8	41.8	41.8	62	29.7	1	3	292	0.00	30.016 
23:10	41.8	41.8	41.8	62	29.7	0	2	292	0.00	30.016 
23:15	41.8	41.8	41.8	62	29.7	0	2	292	0.00	30.018 
23:20	41.8	41.8	41.8	62	29.7	0	2	292	0.00	30.018 
23:25	41.8	41.8	41.8	63	30.1	0	3	292	0.00	30.018 
23:30	41.6	41.6	41.6	63	30.0	0	2	292	0.00	30.019 
23:35	41.6	41.6	41.6	64	30.3	0	1	292	0.00	30.019 
23:40	41.6	41.6	41.6	65	30.7	0	1	292	0.00	30.019 
23:45	41.5	41.5	41.5	64	30.2	0	1	292	0.00	30.017 
23:50	41.5	41.5	41.5	63	29.9	0	2	292	0.00	30.017 
23:55	41.5	41.5	41.5	64	30.2	0	1	292	0.00	30.017 

CoCoRaHS
IN-AL-39
A2 Web Hosting
Creative Commons License
GoDaddy
search engine by freefind advanced

loaded 2018-11-15 05:07:07 • last modified 2010-11-18 10:43:29
Privacy PolicyDisclaimer
• wx.awcolley.com is powered by PmWiki v.2002016 •
• all content (unless otherwise noted) © 2018 A W Colley